sensor_id;sensor_type;location;lat;lon;timestamp;temperature;humidity
53272;DHT22;39160;48.580;7.756;2023-06-14T00:03:51;24.00;50.40
53272;DHT22;39160;48.580;7.756;2023-06-14T00:08:42;24.00;50.60
53272;DHT22;39160;48.580;7.756;2023-06-14T00:13:33;23.90;50.90
53272;DHT22;39160;48.580;7.756;2023-06-14T00:18:24;23.80;50.90
53272;DHT22;39160;48.580;7.756;2023-06-14T00:23:15;23.80;51.00
53272;DHT22;39160;48.580;7.756;2023-06-14T00:28:06;23.50;51.30
53272;DHT22;39160;48.580;7.756;2023-06-14T00:32:56;23.40;51.50
53272;DHT22;39160;48.580;7.756;2023-06-14T00:37:47;23.50;51.30
53272;DHT22;39160;48.580;7.756;2023-06-14T00:42:38;23.30;51.40
53272;DHT22;39160;48.580;7.756;2023-06-14T00:47:29;23.40;51.50
53272;DHT22;39160;48.580;7.756;2023-06-14T00:52:20;23.10;51.80
53272;DHT22;39160;48.580;7.756;2023-06-14T00:57:11;23.00;52.10
53272;DHT22;39160;48.580;7.756;2023-06-14T01:02:02;22.80;52.30
53272;DHT22;39160;48.580;7.756;2023-06-14T01:06:57;22.90;52.30
53272;DHT22;39160;48.580;7.756;2023-06-14T01:16:51;22.70;52.50
53272;DHT22;39160;48.580;7.756;2023-06-14T01:21:43;22.80;52.60
53272;DHT22;39160;48.580;7.756;2023-06-14T01:26:34;22.60;52.90
53272;DHT22;39160;48.580;7.756;2023-06-14T01:31:26;22.70;52.90
53272;DHT22;39160;48.580;7.756;2023-06-14T01:36:19;22.40;53.30
53272;DHT22;39160;48.580;7.756;2023-06-14T01:41:10;22.40;53.40
53272;DHT22;39160;48.580;7.756;2023-06-14T01:46:03;22.30;53.70
53272;DHT22;39160;48.580;7.756;2023-06-14T01:50:54;22.20;53.90
53272;DHT22;39160;48.580;7.756;2023-06-14T01:55:45;22.20;54.30
53272;DHT22;39160;48.580;7.756;2023-06-14T02:00:38;22.10;54.10
53272;DHT22;39160;48.580;7.756;2023-06-14T02:05:29;22.10;54.10
53272;DHT22;39160;48.580;7.756;2023-06-14T02:10:20;21.90;54.30
53272;DHT22;39160;48.580;7.756;2023-06-14T02:15:11;22.00;54.30
53272;DHT22;39160;48.580;7.756;2023-06-14T02:20:07;21.90;54.70
53272;DHT22;39160;48.580;7.756;2023-06-14T02:24:58;21.90;54.70
53272;DHT22;39160;48.580;7.756;2023-06-14T02:29:49;21.80;54.80
53272;DHT22;39160;48.580;7.756;2023-06-14T02:34:40;21.60;55.10
53272;DHT22;39160;48.580;7.756;2023-06-14T02:39:31;21.60;55.20
53272;DHT22;39160;48.580;7.756;2023-06-14T02:44:26;21.50;55.40
53272;DHT22;39160;48.580;7.756;2023-06-14T02:49:17;21.50;55.30
53272;DHT22;39160;48.580;7.756;2023-06-14T02:54:08;21.30;55.90
53272;DHT22;39160;48.580;7.756;2023-06-14T02:58:59;21.30;55.80
53272;DHT22;39160;48.580;7.756;2023-06-14T03:03:50;21.40;55.90
53272;DHT22;39160;48.580;7.756;2023-06-14T03:08:41;21.20;56.10
53272;DHT22;39160;48.580;7.756;2023-06-14T03:13:32;20.90;56.70
53272;DHT22;39160;48.580;7.756;2023-06-14T03:18:22;20.70;57.10
53272;DHT22;39160;48.580;7.756;2023-06-14T03:23:13;20.60;57.10
53272;DHT22;39160;48.580;7.756;2023-06-14T03:28:04;20.50;57.50
53272;DHT22;39160;48.580;7.756;2023-06-14T03:32:55;20.50;57.60
53272;DHT22;39160;48.580;7.756;2023-06-14T03:37:46;20.60;57.60
53272;DHT22;39160;48.580;7.756;2023-06-14T03:42:37;20.50;57.90
53272;DHT22;39160;48.580;7.756;2023-06-14T03:47:27;20.70;57.60
53272;DHT22;39160;48.580;7.756;2023-06-14T03:52:18;20.60;57.70
53272;DHT22;39160;48.580;7.756;2023-06-14T03:57:09;20.60;58.00
53272;DHT22;39160;48.580;7.756;2023-06-14T04:02:00;20.50;58.20
53272;DHT22;39160;48.580;7.756;2023-06-14T04:06:51;20.50;58.40
53272;DHT22;39160;48.580;7.756;2023-06-14T04:11:42;20.60;58.30
53272;DHT22;39160;48.580;7.756;2023-06-14T04:16:32;20.70;58.20
53272;DHT22;39160;48.580;7.756;2023-06-14T04:21:23;20.60;58.50
53272;DHT22;39160;48.580;7.756;2023-06-14T04:26:14;20.50;58.80
53272;DHT22;39160;48.580;7.756;2023-06-14T04:31:07;20.40;58.70
53272;DHT22;39160;48.580;7.756;2023-06-14T04:35:58;20.60;58.70
53272;DHT22;39160;48.580;7.756;2023-06-14T04:40:50;20.60;58.90
53272;DHT22;39160;48.580;7.756;2023-06-14T04:45:43;20.40;59.10
53272;DHT22;39160;48.580;7.756;2023-06-14T04:50:36;20.50;59.00
53272;DHT22;39160;48.580;7.756;2023-06-14T04:55:27;20.50;59.10
53272;DHT22;39160;48.580;7.756;2023-06-14T05:00:18;20.60;59.00
53272;DHT22;39160;48.580;7.756;2023-06-14T05:05:08;20.60;59.30
53272;DHT22;39160;48.580;7.756;2023-06-14T05:09:59;20.60;59.20
53272;DHT22;39160;48.580;7.756;2023-06-14T05:14:50;20.50;59.40
53272;DHT22;39160;48.580;7.756;2023-06-14T05:19:41;20.50;59.80
53272;DHT22;39160;48.580;7.756;2023-06-14T05:24:31;20.40;60.50
53272;DHT22;39160;48.580;7.756;2023-06-14T05:29:22;20.40;60.30
53272;DHT22;39160;48.580;7.756;2023-06-14T05:34:13;20.40;60.20
53272;DHT22;39160;48.580;7.756;2023-06-14T05:39:03;20.60;60.00
53272;DHT22;39160;48.580;7.756;2023-06-14T05:43:56;20.60;60.00
53272;DHT22;39160;48.580;7.756;2023-06-14T05:48:47;20.70;59.80
53272;DHT22;39160;48.580;7.756;2023-06-14T05:53:38;20.70;60.10
53272;DHT22;39160;48.580;7.756;2023-06-14T05:58:28;20.80;60.10
53272;DHT22;39160;48.580;7.756;2023-06-14T06:03:19;20.70;61.00
53272;DHT22;39160;48.580;7.756;2023-06-14T06:08:09;20.80;60.30
53272;DHT22;39160;48.580;7.756;2023-06-14T06:13:00;20.90;60.30
53272;DHT22;39160;48.580;7.756;2023-06-14T06:17:51;21.00;60.20
53272;DHT22;39160;48.580;7.756;2023-06-14T06:22:41;21.00;60.20
53272;DHT22;39160;48.580;7.756;2023-06-14T06:27:32;21.00;60.40
53272;DHT22;39160;48.580;7.756;2023-06-14T06:32:23;21.10;60.50
53272;DHT22;39160;48.580;7.756;2023-06-14T06:37:14;21.30;60.40
53272;DHT22;39160;48.580;7.756;2023-06-14T06:42:05;21.40;60.10
53272;DHT22;39160;48.580;7.756;2023-06-14T06:46:57;21.30;60.40
53272;DHT22;39160;48.580;7.756;2023-06-14T06:52:05;21.20;60.80
53272;DHT22;39160;48.580;7.756;2023-06-14T06:56:56;21.30;60.80
53272;DHT22;39160;48.580;7.756;2023-06-14T07:01:47;21.50;60.80
53272;DHT22;39160;48.580;7.756;2023-06-14T07:06:38;21.50;60.60
53272;DHT22;39160;48.580;7.756;2023-06-14T07:11:28;21.70;60.50
53272;DHT22;39160;48.580;7.756;2023-06-14T07:16:19;21.60;60.50
53272;DHT22;39160;48.580;7.756;2023-06-14T07:21:10;21.80;60.40
53272;DHT22;39160;48.580;7.756;2023-06-14T07:26:01;21.80;60.40
53272;DHT22;39160;48.580;7.756;2023-06-14T07:30:51;22.10;60.00
53272;DHT22;39160;48.580;7.756;2023-06-14T07:35:42;21.90;60.30
53272;DHT22;39160;48.580;7.756;2023-06-14T07:40:33;22.10;60.00
53272;DHT22;39160;48.580;7.756;2023-06-14T07:45:23;22.20;59.80
53272;DHT22;39160;48.580;7.756;2023-06-14T07:50:14;22.40;59.80
53272;DHT22;39160;48.580;7.756;2023-06-14T07:55:05;22.60;59.50
53272;DHT22;39160;48.580;7.756;2023-06-14T07:59:56;22.60;59.40
53272;DHT22;39160;48.580;7.756;2023-06-14T08:04:46;22.70;59.30
53272;DHT22;39160;48.580;7.756;2023-06-14T08:09:38;22.60;59.40
53272;DHT22;39160;48.580;7.756;2023-06-14T08:14:29;22.60;59.40
53272;DHT22;39160;48.580;7.756;2023-06-14T08:19:20;22.70;59.30
53272;DHT22;39160;48.580;7.756;2023-06-14T08:24:13;22.80;59.20
53272;DHT22;39160;48.580;7.756;2023-06-14T08:29:04;22.90;59.20
53272;DHT22;39160;48.580;7.756;2023-06-14T08:33:55;22.90;59.10
53272;DHT22;39160;48.580;7.756;2023-06-14T08:38:46;22.90;59.00
53272;DHT22;39160;48.580;7.756;2023-06-14T08:43:37;23.00;58.90
53272;DHT22;39160;48.580;7.756;2023-06-14T08:48:28;23.00;58.70
53272;DHT22;39160;48.580;7.756;2023-06-14T08:53:19;23.10;58.40
53272;DHT22;39160;48.580;7.756;2023-06-14T08:58:10;23.30;58.20
53272;DHT22;39160;48.580;7.756;2023-06-14T09:03:04;23.50;57.80
53272;DHT22;39160;48.580;7.756;2023-06-14T09:07:56;23.60;57.50
53272;DHT22;39160;48.580;7.756;2023-06-14T09:12:51;23.80;57.40
53272;DHT22;39160;48.580;7.756;2023-06-14T09:17:42;24.10;57.30
53272;DHT22;39160;48.580;7.756;2023-06-14T09:22:33;24.20;57.10
53272;DHT22;39160;48.580;7.756;2023-06-14T09:27:26;24.30;57.10
53272;DHT22;39160;48.580;7.756;2023-06-14T09:32:17;24.40;57.20
53272;DHT22;39160;48.580;7.756;2023-06-14T09:37:08;24.30;57.10
53272;DHT22;39160;48.580;7.756;2023-06-14T09:41:59;24.20;57.20
53272;DHT22;39160;48.580;7.756;2023-06-14T09:46:50;24.30;57.20
53272;DHT22;39160;48.580;7.756;2023-06-14T09:51:45;24.50;56.90
53272;DHT22;39160;48.580;7.756;2023-06-14T09:56:38;24.60;56.60
53272;DHT22;39160;48.580;7.756;2023-06-14T10:01:31;24.60;56.40
53272;DHT22;39160;48.580;7.756;2023-06-14T10:06:23;24.70;56.40
53272;DHT22;39160;48.580;7.756;2023-06-14T10:11:15;24.80;56.10
53272;DHT22;39160;48.580;7.756;2023-06-14T10:16:12;24.80;55.90
53272;DHT22;39160;48.580;7.756;2023-06-14T10:26:32;25.00;55.20
53272;DHT22;39160;48.580;7.756;2023-06-14T10:31:23;25.20;55.20
53272;DHT22;39160;48.580;7.756;2023-06-14T10:36:30;25.30;54.80
53272;DHT22;39160;48.580;7.756;2023-06-14T10:41:21;25.20;54.10
53272;DHT22;39160;48.580;7.756;2023-06-14T10:46:16;25.30;53.70
53272;DHT22;39160;48.580;7.756;2023-06-14T10:51:20;25.50;53.50
53272;DHT22;39160;48.580;7.756;2023-06-14T10:56:23;25.80;53.10
53272;DHT22;39160;48.580;7.756;2023-06-14T11:01:17;25.70;53.20
53272;DHT22;39160;48.580;7.756;2023-06-14T11:06:14;25.60;53.80
53272;DHT22;39160;48.580;7.756;2023-06-14T11:11:08;25.90;53.10
53272;DHT22;39160;48.580;7.756;2023-06-14T11:15:59;25.80;52.80
53272;DHT22;39160;48.580;7.756;2023-06-14T11:20:50;25.80;52.70
53272;DHT22;39160;48.580;7.756;2023-06-14T11:25:41;25.70;52.10
53272;DHT22;39160;48.580;7.756;2023-06-14T11:30:32;25.70;51.80
53272;DHT22;39160;48.580;7.756;2023-06-14T11:35:23;25.80;51.40
53272;DHT22;39160;48.580;7.756;2023-06-14T11:40:13;25.90;51.00
53272;DHT22;39160;48.580;7.756;2023-06-14T11:45:07;25.90;50.70
53272;DHT22;39160;48.580;7.756;2023-06-14T11:49:59;26.10;50.50
53272;DHT22;39160;48.580;7.756;2023-06-14T11:54:50;26.30;50.10
53272;DHT22;39160;48.580;7.756;2023-06-14T11:59:40;26.40;50.00
53272;DHT22;39160;48.580;7.756;2023-06-14T12:04:31;26.40;49.60
53272;DHT22;39160;48.580;7.756;2023-06-14T12:09:22;26.60;49.40
53272;DHT22;39160;48.580;7.756;2023-06-14T12:14:14;26.70;49.10
53272;DHT22;39160;48.580;7.756;2023-06-14T12:19:15;27.10;49.00
53272;DHT22;39160;48.580;7.756;2023-06-14T12:24:07;27.10;48.60
53272;DHT22;39160;48.580;7.756;2023-06-14T12:28:58;27.20;48.70
53272;DHT22;39160;48.580;7.756;2023-06-14T12:33:49;27.60;49.00
53272;DHT22;39160;48.580;7.756;2023-06-14T12:38:40;28.00;48.90
53272;DHT22;39160;48.580;7.756;2023-06-14T12:43:31;28.30;48.60
53272;DHT22;39160;48.580;7.756;2023-06-14T12:48:22;28.50;48.30
53272;DHT22;39160;48.580;7.756;2023-06-14T12:53:13;28.80;48.40
53272;DHT22;39160;48.580;7.756;2023-06-14T12:58:03;29.80;48.60
53272;DHT22;39160;48.580;7.756;2023-06-14T13:02:54;30.50;48.00
53272;DHT22;39160;48.580;7.756;2023-06-14T13:07:45;31.10;47.70
53272;DHT22;39160;48.580;7.756;2023-06-14T13:12:36;31.40;47.40
53272;DHT22;39160;48.580;7.756;2023-06-14T13:17:27;32.00;46.90
53272;DHT22;39160;48.580;7.756;2023-06-14T13:22:17;32.50;46.70
53272;DHT22;39160;48.580;7.756;2023-06-14T13:27:08;32.70;45.90
53272;DHT22;39160;48.580;7.756;2023-06-14T13:31:59;33.10;46.00
53272;DHT22;39160;48.580;7.756;2023-06-14T13:36:50;33.10;45.20
53272;DHT22;39160;48.580;7.756;2023-06-14T13:41:40;33.40;45.00
53272;DHT22;39160;48.580;7.756;2023-06-14T13:46:31;33.60;44.60
53272;DHT22;39160;48.580;7.756;2023-06-14T13:51:22;33.80;44.40
53272;DHT22;39160;48.580;7.756;2023-06-14T13:56:13;34.50;44.00
53272;DHT22;39160;48.580;7.756;2023-06-14T14:01:03;34.90;43.50
53272;DHT22;39160;48.580;7.756;2023-06-14T14:05:54;34.60;43.30
53272;DHT22;39160;48.580;7.756;2023-06-14T14:10:45;34.60;43.00
53272;DHT22;39160;48.580;7.756;2023-06-14T14:15:36;34.70;42.70
53272;DHT22;39160;48.580;7.756;2023-06-14T14:20:27;34.90;42.40
53272;DHT22;39160;48.580;7.756;2023-06-14T14:25:18;35.00;42.50
53272;DHT22;39160;48.580;7.756;2023-06-14T14:30:09;34.70;42.20
53272;DHT22;39160;48.580;7.756;2023-06-14T14:35:00;34.60;42.30
53272;DHT22;39160;48.580;7.756;2023-06-14T14:39:50;34.90;42.30
53272;DHT22;39160;48.580;7.756;2023-06-14T14:44:41;35.30;42.10
53272;DHT22;39160;48.580;7.756;2023-06-14T14:49:32;35.10;41.70
53272;DHT22;39160;48.580;7.756;2023-06-14T14:54:23;34.90;41.60
53272;DHT22;39160;48.580;7.756;2023-06-14T14:59:15;35.00;41.30
53272;DHT22;39160;48.580;7.756;2023-06-14T15:04:06;35.00;41.40
53272;DHT22;39160;48.580;7.756;2023-06-14T15:08:57;35.10;41.40
53272;DHT22;39160;48.580;7.756;2023-06-14T15:13:47;35.80;41.00
53272;DHT22;39160;48.580;7.756;2023-06-14T15:18:39;35.90;41.00
53272;DHT22;39160;48.580;7.756;2023-06-14T15:23:29;35.80;40.70
53272;DHT22;39160;48.580;7.756;2023-06-14T15:28:20;35.50;41.30
53272;DHT22;39160;48.580;7.756;2023-06-14T15:33:11;34.90;40.90
53272;DHT22;39160;48.580;7.756;2023-06-14T15:38:02;35.40;40.30
53272;DHT22;39160;48.580;7.756;2023-06-14T15:42:53;35.30;40.20
53272;DHT22;39160;48.580;7.756;2023-06-14T15:47:43;35.90;39.80
53272;DHT22;39160;48.580;7.756;2023-06-14T15:52:34;36.40;39.40
53272;DHT22;39160;48.580;7.756;2023-06-14T15:57:25;36.30;39.20
53272;DHT22;39160;48.580;7.756;2023-06-14T16:02:16;36.70;39.10
53272;DHT22;39160;48.580;7.756;2023-06-14T16:07:06;37.30;38.70
53272;DHT22;39160;48.580;7.756;2023-06-14T16:11:57;37.90;38.40
53272;DHT22;39160;48.580;7.756;2023-06-14T16:16:48;37.80;38.20
53272;DHT22;39160;48.580;7.756;2023-06-14T16:21:39;38.20;38.10
53272;DHT22;39160;48.580;7.756;2023-06-14T16:26:29;38.70;37.70
53272;DHT22;39160;48.580;7.756;2023-06-14T16:31:20;40.70;37.10
53272;DHT22;39160;48.580;7.756;2023-06-14T16:36:12;40.80;36.70
53272;DHT22;39160;48.580;7.756;2023-06-14T16:41:03;40.30;36.90
53272;DHT22;39160;48.580;7.756;2023-06-14T16:45:53;40.40;37.00
53272;DHT22;39160;48.580;7.756;2023-06-14T16:50:44;41.30;36.90
53272;DHT22;39160;48.580;7.756;2023-06-14T16:55:35;41.50;36.80
53272;DHT22;39160;48.580;7.756;2023-06-14T17:00:26;40.40;36.90
53272;DHT22;39160;48.580;7.756;2023-06-14T17:05:17;40.80;36.80
53272;DHT22;39160;48.580;7.756;2023-06-14T17:10:08;40.80;36.80
53272;DHT22;39160;48.580;7.756;2023-06-14T17:14:58;40.20;37.10
53272;DHT22;39160;48.580;7.756;2023-06-14T17:19:49;39.10;37.50
53272;DHT22;39160;48.580;7.756;2023-06-14T17:24:40;38.90;37.50
53272;DHT22;39160;48.580;7.756;2023-06-14T17:29:30;39.40;37.30
53272;DHT22;39160;48.580;7.756;2023-06-14T17:34:21;38.40;37.60
53272;DHT22;39160;48.580;7.756;2023-06-14T17:39:11;38.10;37.60
53272;DHT22;39160;48.580;7.756;2023-06-14T17:44:03;37.90;37.70
53272;DHT22;39160;48.580;7.756;2023-06-14T17:48:54;37.50;38.10
53272;DHT22;39160;48.580;7.756;2023-06-14T17:53:45;37.20;38.30
53272;DHT22;39160;48.580;7.756;2023-06-14T17:58:35;36.60;38.60
53272;DHT22;39160;48.580;7.756;2023-06-14T18:03:26;35.60;39.10
53272;DHT22;39160;48.580;7.756;2023-06-14T18:08:17;33.50;40.00
53272;DHT22;39160;48.580;7.756;2023-06-14T18:13:07;31.80;40.80
53272;DHT22;39160;48.580;7.756;2023-06-14T18:17:58;30.80;41.40
53272;DHT22;39160;48.580;7.756;2023-06-14T18:22:49;30.30;41.50
53272;DHT22;39160;48.580;7.756;2023-06-14T18:27:40;29.90;42.00
53272;DHT22;39160;48.580;7.756;2023-06-14T18:32:31;29.40;42.40
53272;DHT22;39160;48.580;7.756;2023-06-14T18:37:24;28.80;43.10
53272;DHT22;39160;48.580;7.756;2023-06-14T18:42:15;28.60;43.30
53272;DHT22;39160;48.580;7.756;2023-06-14T18:47:06;28.20;43.80
53272;DHT22;39160;48.580;7.756;2023-06-14T18:51:57;28.00;44.20
53272;DHT22;39160;48.580;7.756;2023-06-14T18:56:48;27.70;44.80
53272;DHT22;39160;48.580;7.756;2023-06-14T19:01:39;27.50;45.20
53272;DHT22;39160;48.580;7.756;2023-06-14T19:06:30;27.40;45.30
53272;DHT22;39160;48.580;7.756;2023-06-14T19:11:20;27.40;45.60
53272;DHT22;39160;48.580;7.756;2023-06-14T19:16:11;27.40;45.70
53272;DHT22;39160;48.580;7.756;2023-06-14T19:21:02;27.20;46.50
53272;DHT22;39160;48.580;7.756;2023-06-14T19:25:52;27.10;46.30
53272;DHT22;39160;48.580;7.756;2023-06-14T19:30:43;27.00;47.20
53272;DHT22;39160;48.580;7.756;2023-06-14T19:35:34;26.80;46.90
53272;DHT22;39160;48.580;7.756;2023-06-14T19:40:25;26.80;47.20
53272;DHT22;39160;48.580;7.756;2023-06-14T19:45:16;26.50;47.40
53272;DHT22;39160;48.580;7.756;2023-06-14T19:50:07;26.40;47.70
53272;DHT22;39160;48.580;7.756;2023-06-14T19:54:58;26.40;47.90
53272;DHT22;39160;48.580;7.756;2023-06-14T19:59:48;26.30;48.00
53272;DHT22;39160;48.580;7.756;2023-06-14T20:04:39;26.20;48.30
53272;DHT22;39160;48.580;7.756;2023-06-14T20:09:30;26.20;48.60
53272;DHT22;39160;48.580;7.756;2023-06-14T20:14:22;26.10;48.70
53272;DHT22;39160;48.580;7.756;2023-06-14T20:19:12;26.00;48.90
53272;DHT22;39160;48.580;7.756;2023-06-14T20:24:03;25.90;49.10
53272;DHT22;39160;48.580;7.756;2023-06-14T20:28:54;25.80;49.30
53272;DHT22;39160;48.580;7.756;2023-06-14T20:33:45;25.80;49.40
53272;DHT22;39160;48.580;7.756;2023-06-14T20:38:36;25.80;49.80
53272;DHT22;39160;48.580;7.756;2023-06-14T20:43:27;25.90;50.20
53272;DHT22;39160;48.580;7.756;2023-06-14T20:48:18;25.90;50.50
53272;DHT22;39160;48.580;7.756;2023-06-14T20:53:09;25.90;50.60
53272;DHT22;39160;48.580;7.756;2023-06-14T20:57:59;25.70;50.80
53272;DHT22;39160;48.580;7.756;2023-06-14T21:02:50;25.50;51.10
53272;DHT22;39160;48.580;7.756;2023-06-14T21:07:41;25.50;51.10
53272;DHT22;39160;48.580;7.756;2023-06-14T21:12:32;25.30;51.40
53272;DHT22;39160;48.580;7.756;2023-06-14T21:17:23;25.30;51.50
53272;DHT22;39160;48.580;7.756;2023-06-14T21:22:14;25.30;51.50
53272;DHT22;39160;48.580;7.756;2023-06-14T21:27:05;25.20;51.80
53272;DHT22;39160;48.580;7.756;2023-06-14T21:31:56;25.10;51.80
53272;DHT22;39160;48.580;7.756;2023-06-14T21:36:46;25.00;51.90
53272;DHT22;39160;48.580;7.756;2023-06-14T21:41:37;24.90;52.20
53272;DHT22;39160;48.580;7.756;2023-06-14T21:46:29;25.00;52.10
53272;DHT22;39160;48.580;7.756;2023-06-14T21:51:21;24.80;52.50
53272;DHT22;39160;48.580;7.756;2023-06-14T21:56:12;24.70;52.70
53272;DHT22;39160;48.580;7.756;2023-06-14T22:01:02;25.00;52.60
53272;DHT22;39160;48.580;7.756;2023-06-14T22:05:53;24.80;52.80
53272;DHT22;39160;48.580;7.756;2023-06-14T22:10:44;24.50;53.20
53272;DHT22;39160;48.580;7.756;2023-06-14T22:15:34;24.40;53.40
53272;DHT22;39160;48.580;7.756;2023-06-14T22:20:25;24.30;53.50
53272;DHT22;39160;48.580;7.756;2023-06-14T22:25:19;24.30;53.80
53272;DHT22;39160;48.580;7.756;2023-06-14T22:30:11;24.10;54.20
53272;DHT22;39160;48.580;7.756;2023-06-14T22:35:02;24.10;54.10
53272;DHT22;39160;48.580;7.756;2023-06-14T22:39:53;23.90;54.60
53272;DHT22;39160;48.580;7.756;2023-06-14T22:44:43;24.00;54.60
53272;DHT22;39160;48.580;7.756;2023-06-14T22:49:40;24.00;54.60
53272;DHT22;39160;48.580;7.756;2023-06-14T22:54:31;24.00;54.70
53272;DHT22;39160;48.580;7.756;2023-06-14T22:59:22;23.70;55.20
53272;DHT22;39160;48.580;7.756;2023-06-14T23:04:14;23.60;55.10
53272;DHT22;39160;48.580;7.756;2023-06-14T23:09:05;23.70;55.10
53272;DHT22;39160;48.580;7.756;2023-06-14T23:13:57;23.60;55.10
53272;DHT22;39160;48.580;7.756;2023-06-14T23:18:48;23.40;55.40
53272;DHT22;39160;48.580;7.756;2023-06-14T23:23:39;23.40;55.60
53272;DHT22;39160;48.580;7.756;2023-06-14T23:28:30;23.40;55.60
53272;DHT22;39160;48.580;7.756;2023-06-14T23:33:23;23.20;55.90
53272;DHT22;39160;48.580;7.756;2023-06-14T23:38:15;23.20;55.80
53272;DHT22;39160;48.580;7.756;2023-06-14T23:43:08;23.10;55.90
53272;DHT22;39160;48.580;7.756;2023-06-14T23:47:58;23.10;55.80
53272;DHT22;39160;48.580;7.756;2023-06-14T23:52:49;23.00;56.00
53272;DHT22;39160;48.580;7.756;2023-06-14T23:57:41;22.90;56.20
